createdAt,value
2017-05-25T00:01:05.042Z,68.13
2017-05-25T00:02:20.508Z,68.04
2017-05-25T00:03:35.902Z,68.13
2017-05-25T00:04:51.288Z,67.75
2017-05-25T00:06:06.636Z,68.32
2017-05-25T00:07:22.045Z,68.04
2017-05-25T00:08:37.494Z,68.04
2017-05-25T00:09:53.109Z,68.41
2017-05-25T00:11:08.758Z,68.23
2017-05-25T00:12:23.718Z,68.13
2017-05-25T00:13:37.885Z,68.13
2017-05-25T00:14:53.382Z,68.41
2017-05-25T00:16:09.026Z,68.32
2017-05-25T00:17:24.483Z,68.41
2017-05-25T00:18:39.895Z,68.04
2017-05-25T00:19:54.021Z,68.9
2017-05-25T00:21:09.637Z,68.51
2017-05-25T00:22:23.673Z,68.41
2017-05-25T00:23:39.141Z,68.61
2017-05-25T00:24:53.111Z,68.8
2017-05-25T00:26:07.766Z,68.7
2017-05-25T00:27:23.153Z,68.51
2017-05-25T00:28:38.667Z,68.51
2017-05-25T00:29:54.038Z,68.51
2017-05-25T00:31:09.603Z,68.51
2017-05-25T00:32:23.771Z,68.99
2017-05-25T00:33:39.313Z,68.9
2017-05-25T00:34:54.431Z,68.9
2017-05-25T00:36:08.807Z,68.9
2017-05-25T00:37:22.606Z,69.18
2017-05-25T00:38:38.442Z,68.99
2017-05-25T00:39:53.857Z,68.9
2017-05-25T00:41:09.500Z,68.99
2017-05-25T00:42:24.948Z,69.47
2017-05-25T00:43:39.101Z,69.09
2017-05-25T00:44:54.601Z,69.37
2017-05-25T00:46:10.217Z,69.27
2017-05-25T00:47:24.404Z,69.37
2017-05-25T00:48:39.826Z,69.27
2017-05-25T00:49:55.277Z,69.47
2017-05-25T00:51:09.379Z,69.66
2017-05-25T00:52:22.423Z,69.47
2017-05-25T00:53:37.845Z,69.47
2017-05-25T00:54:53.471Z,69.27
2017-05-25T00:56:07.605Z,69.27
2017-05-25T00:57:23.508Z,69.27
2017-05-25T00:58:38.997Z,69.37
2017-05-25T00:59:53.358Z,69.37
2017-05-25T01:01:07.157Z,69.27
2017-05-25T01:02:22.776Z,69.56
2017-05-25T01:03:36.922Z,69.37
2017-05-25T01:04:51.090Z,69.47
2017-05-25T01:06:06.549Z,69.47
2017-05-25T01:07:20.997Z,69.27
2017-05-25T01:08:35.187Z,69.27
2017-05-25T01:09:49.339Z,69.27
2017-05-25T01:11:04.798Z,69.37
2017-05-25T01:12:20.450Z,69.47
2017-05-25T01:13:35.869Z,69.18
2017-05-25T01:14:51.257Z,69.18
2017-05-25T01:16:06.623Z,69.37
2017-05-25T01:17:19.398Z,69.66
2017-05-25T01:18:35.049Z,69.47
2017-05-25T01:19:50.728Z,69.56
2017-05-25T01:21:06.131Z,69.76
2017-05-25T01:22:21.858Z,69.56
2017-05-25T01:23:37.448Z,69.85
2017-05-25T01:24:52.930Z,69.56
2017-05-25T01:26:08.378Z,69.85
2017-05-25T01:27:23.767Z,69.95
2017-05-25T01:28:39.435Z,70.23
2017-05-25T01:29:54.849Z,70.04
2017-05-25T01:31:10.506Z,70.14
2017-05-25T01:32:25.861Z,70.01
2017-05-25T01:33:41.578Z,70.14
2017-05-25T01:34:55.630Z,70.23
2017-05-25T01:36:09.628Z,70.29
2017-05-25T01:37:25.197Z,70.1
2017-05-25T01:38:39.631Z,70.33
2017-05-25T01:39:55.124Z,70.48
2017-05-25T01:41:10.530Z,70.77
2017-05-25T01:42:25.942Z,70.58
2017-05-25T01:43:41.580Z,71.06
2017-05-25T01:44:55.714Z,70.96
2017-05-25T01:46:11.366Z,71.25
2017-05-25T01:47:27.128Z,71.06
2017-05-25T01:48:41.432Z,70.96
2017-05-25T01:49:55.592Z,71.15
2017-05-25T01:51:11.058Z,71.15
2017-05-25T01:52:26.488Z,71.15
2017-05-25T01:53:42.139Z,71.82
2017-05-25T01:54:57.575Z,71.82
2017-05-25T01:56:11.678Z,71.63
2017-05-25T01:57:26.901Z,71.44
2017-05-25T01:58:42.553Z,71.82
2017-05-25T01:59:56.714Z,71.25
2017-05-25T02:01:10.488Z,71.44
2017-05-25T02:02:24.581Z,71.34
2017-05-25T02:03:38.995Z,71.53
2017-05-25T02:04:53.621Z,71.53
2017-05-25T02:06:09.055Z,71.53
2017-05-25T02:07:24.509Z,71.63
2017-05-25T02:08:40.117Z,71.53
2017-05-25T02:09:55.583Z,71.44
2017-05-25T02:11:11.164Z,71.82
2017-05-25T02:12:25.291Z,71.82
2017-05-25T02:13:41.131Z,71.63
2017-05-25T02:14:54.938Z,71.72
2017-05-25T02:16:10.355Z,71.44
2017-05-25T02:17:25.435Z,71.53
2017-05-25T02:18:41.064Z,71.53
2017-05-25T02:19:56.518Z,71.34
2017-05-25T02:21:11.975Z,71.44
2017-05-25T02:22:27.403Z,71.82
2017-05-25T02:23:43.047Z,71.72
2017-05-25T02:24:58.520Z,72.11
2017-05-25T02:26:13.963Z,71.92
2017-05-25T02:27:29.439Z,71.82
2017-05-25T02:28:45.231Z,71.72
2017-05-25T02:30:00.652Z,72.58
2017-05-25T02:31:16.163Z,72.11
2017-05-25T02:32:31.630Z,72.2
2017-05-25T02:33:45.902Z,72.3
2017-05-25T02:35:01.327Z,72.3
2017-05-25T02:36:16.822Z,72.39
2017-05-25T02:37:32.238Z,72.2
2017-05-25T02:38:47.930Z,72.3
2017-05-25T02:40:03.401Z,72.2
2017-05-25T02:41:18.910Z,72.39
2017-05-25T02:42:34.354Z,72.39
2017-05-25T02:43:49.971Z,72.39
2017-05-25T02:45:05.463Z,72.68
2017-05-25T02:46:20.544Z,72.2
2017-05-25T02:47:35.969Z,72.39
2017-05-25T02:48:51.628Z,72.2
2017-05-25T02:50:07.018Z,72.58
2017-05-25T02:51:22.488Z,72.58
2017-05-25T02:52:37.910Z,73.07
2017-05-25T02:53:53.556Z,72.97
2017-05-25T02:55:08.994Z,72.97
2017-05-25T02:56:24.417Z,72.87
2017-05-25T02:57:39.892Z,72.87
2017-05-25T02:58:55.503Z,72.97
2017-05-25T03:00:10.885Z,73.44
2017-05-25T03:01:24.897Z,73.16
2017-05-25T03:02:40.676Z,73.25
2017-05-25T03:03:56.543Z,73.44
2017-05-25T03:05:10.734Z,73.92
2017-05-25T03:06:26.153Z,73.73
2017-05-25T03:07:40.307Z,73.83
2017-05-25T03:08:55.937Z,73.63
2017-05-25T03:10:11.341Z,73.83
2017-05-25T03:11:26.743Z,73.69
2017-05-25T03:12:40.867Z,73.69
2017-05-25T03:13:56.566Z,74.65
2017-05-25T03:15:12.040Z,74.59
2017-05-25T03:16:27.481Z,74.37
2017-05-25T03:17:42.874Z,73.98
2017-05-25T03:18:58.516Z,74.84
2017-05-25T03:20:13.943Z,74.55
2017-05-25T03:21:29.597Z,73.98
2017-05-25T03:22:42.636Z,74.65
2017-05-25T03:23:58.163Z,74.55
2017-05-25T03:25:12.496Z,74.55
2017-05-25T03:26:27.883Z,74.55
2017-05-25T03:27:43.321Z,74.46
2017-05-25T03:28:58.811Z,74.65
2017-05-25T03:30:45.249Z,74.46
2017-05-25T03:32:00.662Z,74.65
2017-05-25T03:33:16.103Z,74.46
2017-05-25T03:34:30.515Z,74.4
2017-05-25T03:35:45.996Z,74.88
2017-05-25T03:37:01.380Z,74.78
2017-05-25T03:38:16.453Z,74.88
2017-05-25T03:39:32.145Z,74.84
2017-05-25T03:40:46.311Z,74.88
2017-05-25T03:42:01.729Z,74.74
2017-05-25T03:43:17.195Z,74.74
2017-05-25T03:44:32.885Z,74.78
2017-05-25T03:45:48.288Z,74.65
2017-05-25T03:47:03.663Z,75.03
2017-05-25T03:48:19.068Z,74.55
2017-05-25T03:49:33.701Z,74.78
2017-05-25T03:50:46.442Z,75.26
2017-05-25T03:52:01.881Z,75.26
2017-05-25T03:53:16.972Z,75.42
2017-05-25T03:54:31.369Z,75.32
2017-05-25T03:55:46.856Z,75.16
2017-05-25T03:57:33.164Z,75.51
2017-05-25T03:58:48.630Z,75.51
2017-05-25T04:00:04.298Z,75.6
2017-05-25T04:01:19.764Z,75.32
2017-05-25T04:02:35.145Z,75.89
2017-05-25T04:03:49.302Z,75.7
2017-05-25T04:05:04.984Z,75.42
2017-05-25T04:06:20.399Z,75.7
2017-05-25T04:07:36.106Z,75.89
2017-05-25T04:08:51.541Z,76.18
2017-05-25T04:10:05.863Z,76.08
2017-05-25T04:11:21.357Z,76.12
2017-05-25T04:12:36.725Z,76.12
2017-05-25T04:13:52.224Z,76.12
2017-05-25T04:15:06.585Z,76.21
2017-05-25T04:16:21.012Z,76.21
2017-05-25T04:17:36.537Z,76.12
2017-05-25T04:18:51.665Z,76.12
2017-05-25T04:20:07.322Z,76.31
2017-05-25T04:21:22.782Z,76.31
2017-05-25T04:22:38.217Z,76.31
2017-05-25T04:23:53.608Z,76.31
2017-05-25T04:25:09.307Z,76.03
2017-05-25T04:26:24.741Z,76.79
2017-05-25T04:27:40.257Z,76.21
2017-05-25T04:28:55.728Z,76.5
2017-05-25T04:30:11.360Z,76.6
2017-05-25T04:31:26.865Z,76.79
2017-05-25T04:32:41.949Z,76.79
2017-05-25T04:33:57.369Z,76.88
2017-05-25T04:35:11.681Z,76.69
2017-05-25T04:36:27.147Z,76.6
2017-05-25T04:37:42.580Z,77.08
2017-05-25T04:38:58.232Z,77.21
2017-05-25T04:40:14.169Z,77.08
2017-05-25T04:41:29.621Z,76.98
2017-05-25T04:42:45.078Z,77.11
2017-05-25T04:44:00.542Z,77.11
2017-05-25T04:45:16.220Z,77.4
2017-05-25T04:46:31.610Z,77.4
2017-05-25T04:47:47.047Z,76.82
2017-05-25T04:49:01.203Z,77.11
2017-05-25T04:50:16.891Z,76.82
2017-05-25T04:51:31.036Z,76.73
2017-05-25T04:52:46.478Z,76.92
2017-05-25T04:54:01.917Z,76.82
2017-05-25T04:55:17.464Z,76.92
2017-05-25T04:56:32.884Z,76.96
2017-05-25T04:57:48.290Z,76.48
2017-05-25T04:59:03.746Z,76.86
2017-05-25T05:00:18.025Z,76.67
2017-05-25T05:01:32.172Z,76.96
2017-05-25T05:02:47.603Z,77.25
2017-05-25T05:04:03.124Z,77.44
2017-05-25T05:05:18.988Z,77.44
2017-05-25T05:06:33.195Z,77.06
2017-05-25T05:07:47.327Z,77.44
2017-05-25T05:09:02.380Z,77.06
2017-05-25T05:10:17.792Z,77.06
2017-05-25T05:11:33.074Z,76.77
2017-05-25T05:12:48.549Z,76.86
2017-05-25T05:14:04.028Z,76.29
2017-05-25T05:15:18.218Z,76.57
2017-05-25T05:16:33.836Z,76.1
2017-05-25T05:17:49.257Z,76.1
2017-05-25T05:19:01.970Z,75.81
2017-05-25T05:20:16.391Z,75.62
2017-05-25T05:21:30.769Z,75.34
2017-05-25T05:22:46.134Z,75.34
2017-05-25T05:24:01.563Z,75.05
2017-05-25T05:25:16.997Z,75.34
2017-05-25T05:26:31.237Z,75.14
2017-05-25T05:27:46.669Z,75.05
2017-05-25T05:29:02.116Z,75.14
2017-05-25T05:30:17.136Z,75.14
2017-05-25T05:31:32.723Z,74.95
2017-05-25T05:32:46.840Z,75.24
2017-05-25T05:34:01.036Z,74.95
2017-05-25T05:35:16.520Z,74.9
2017-05-25T05:36:31.788Z,74.7
2017-05-25T05:37:47.263Z,74.8
2017-05-25T05:39:02.955Z,74.7
2017-05-25T05:40:18.353Z,74.8
2017-05-25T05:41:33.969Z,74.8
2017-05-25T05:42:49.450Z,75.09
2017-05-25T05:44:03.611Z,74.99
2017-05-25T05:45:18.949Z,75.05
2017-05-25T05:46:33.283Z,75.27
2017-05-25T05:47:47.421Z,74.7
2017-05-25T05:49:01.534Z,74.7
2017-05-25T05:50:16.994Z,74.8
2017-05-25T05:51:32.115Z,74.9
2017-05-25T05:52:47.741Z,74.8
2017-05-25T05:54:03.312Z,74.51
2017-05-25T05:55:18.757Z,74.7
2017-05-25T05:56:34.388Z,74.9
2017-05-25T05:57:49.984Z,75.47
2017-05-25T05:59:05.444Z,74.9
2017-05-25T06:00:20.921Z,74.61
2017-05-25T06:01:36.343Z,74.99
2017-05-25T06:02:51.000Z,74.7
2017-05-25T06:04:06.085Z,74.99
2017-05-25T06:05:21.713Z,74.99
2017-05-25T06:06:37.387Z,74.99
2017-05-25T06:07:53.118Z,74.7
2017-05-25T06:09:08.524Z,74.32
2017-05-25T06:10:23.992Z,74.99
2017-05-25T06:11:39.063Z,74.61
2017-05-25T06:12:53.659Z,74.55
2017-05-25T06:14:09.171Z,74.45
2017-05-25T06:15:24.896Z,74.36
2017-05-25T06:16:40.383Z,74.36
2017-05-25T06:17:55.998Z,74.16
2017-05-25T06:19:11.463Z,73.88
2017-05-25T06:20:26.962Z,74.55
2017-05-25T06:21:42.366Z,73.97
2017-05-25T06:22:58.260Z,73.69
2017-05-25T06:24:13.772Z,74.07
2017-05-25T06:25:29.257Z,73.69
2017-05-25T06:26:43.242Z,73.4
2017-05-25T06:27:58.836Z,73.02
2017-05-25T06:29:11.657Z,72.54
2017-05-25T06:30:27.188Z,72.73
2017-05-25T06:31:42.685Z,72.44
2017-05-25T06:32:58.375Z,72.38
2017-05-25T06:34:13.480Z,72.67
2017-05-25T06:35:28.924Z,72.09
2017-05-25T06:36:43.050Z,71.33
2017-05-25T06:37:58.277Z,71.33
2017-05-25T06:39:13.737Z,71.33
2017-05-25T06:40:29.197Z,70.56
2017-05-25T06:41:44.717Z,70.47
2017-05-25T06:43:00.359Z,70.37
2017-05-25T06:44:15.805Z,70.47
2017-05-25T06:45:31.256Z,70.47
2017-05-25T06:46:46.729Z,70.09
2017-05-25T06:48:01.172Z,70.18
2017-05-25T06:49:16.584Z,70.37
2017-05-25T06:50:32.010Z,70.56
2017-05-25T06:51:47.459Z,70.56
2017-05-25T06:53:03.151Z,70.56
2017-05-25T06:54:18.639Z,70.95
2017-05-25T06:55:33.942Z,71.04
2017-05-25T06:56:49.337Z,70.76
2017-05-25T06:58:05.030Z,71.2
2017-05-25T06:59:20.437Z,71.11
2017-05-25T07:00:35.852Z,71.97
2017-05-25T07:01:51.338Z,72.06
2017-05-25T07:03:07.062Z,72.25
2017-05-25T07:04:22.476Z,72.44
2017-05-25T07:05:37.958Z,72.34
2017-05-25T07:06:52.191Z,72.54
2017-05-25T07:08:06.532Z,72.6
2017-05-25T07:09:21.901Z,72.34
2017-05-25T07:10:37.309Z,72.44
2017-05-25T07:11:50.028Z,72.34
2017-05-25T07:13:05.975Z,72.34
2017-05-25T07:14:21.399Z,72.34
2017-05-25T07:15:36.824Z,72.54
2017-05-25T07:16:52.420Z,72.34
2017-05-25T07:18:08.115Z,72.54
2017-05-25T07:19:23.544Z,72.34
2017-05-25T07:20:39.303Z,72.54
2017-05-25T07:21:53.403Z,72.5
2017-05-25T07:23:08.997Z,72.41
2017-05-25T07:24:24.472Z,72.41
2017-05-25T07:25:39.943Z,72.5
2017-05-25T07:26:55.466Z,72.41
2017-05-25T07:28:11.112Z,72.5
2017-05-25T07:29:25.209Z,73.17
2017-05-25T07:30:40.655Z,73.17
2017-05-25T07:31:54.765Z,73.27
2017-05-25T07:33:10.445Z,72.88
2017-05-25T07:34:25.883Z,73.17
2017-05-25T07:35:41.321Z,73.17
2017-05-25T07:36:56.821Z,73.17
2017-05-25T07:38:12.424Z,73.08
2017-05-25T07:39:27.863Z,72.98
2017-05-25T07:40:42.001Z,73.27
2017-05-25T07:41:57.510Z,73.27
2017-05-25T07:43:13.240Z,73.08
2017-05-25T07:44:26.119Z,73.36
2017-05-25T07:45:41.580Z,73.36
2017-05-25T07:46:55.697Z,73.36
2017-05-25T07:48:10.127Z,73.71
2017-05-25T07:49:22.957Z,73.33
2017-05-25T07:50:38.557Z,73.23
2017-05-25T07:51:53.975Z,73.43
2017-05-25T07:53:08.103Z,72.94
2017-05-25T07:54:22.359Z,73.14
2017-05-25T07:55:37.988Z,73.04
2017-05-25T07:56:53.789Z,73.14
2017-05-25T07:58:09.238Z,72.94
2017-05-25T07:59:24.850Z,72.37
2017-05-25T08:00:40.298Z,72.22
2017-05-25T08:01:55.724Z,71.64
2017-05-25T08:03:11.399Z,72.12
2017-05-25T08:04:27.086Z,71.83
2017-05-25T08:05:42.638Z,71.64
2017-05-25T08:06:58.022Z,72.22
2017-05-25T08:08:12.030Z,72.41
2017-05-25T08:09:27.714Z,72.69
2017-05-25T08:10:43.179Z,72.41
2017-05-25T08:11:58.627Z,72.41
2017-05-25T08:13:13.990Z,72.5
2017-05-25T08:14:28.384Z,72.6
2017-05-25T08:15:43.883Z,72.69
2017-05-25T08:16:59.394Z,72.69
2017-05-25T08:18:15.109Z,72.5
2017-05-25T08:19:30.684Z,72.41
2017-05-25T08:20:46.076Z,72.31
2017-05-25T08:22:00.383Z,72.41
2017-05-25T08:23:14.532Z,72.5
2017-05-25T08:24:30.168Z,71.93
2017-05-25T08:25:46.038Z,72.02
2017-05-25T08:27:01.640Z,71.83
2017-05-25T08:28:17.051Z,71.83
2017-05-25T08:29:33.039Z,71.93
2017-05-25T08:30:48.585Z,71.64
2017-05-25T08:32:02.751Z,71.83
2017-05-25T08:33:18.282Z,71.93
2017-05-25T08:34:34.015Z,71.26
2017-05-25T08:35:49.751Z,71.83
2017-05-25T08:37:05.243Z,71.26
2017-05-25T08:38:20.616Z,71.26
2017-05-25T08:39:36.275Z,71.16
2017-05-25T08:40:51.745Z,71.36
2017-05-25T08:42:07.193Z,71.36
2017-05-25T08:43:22.656Z,70.97
2017-05-25T08:44:38.371Z,71.07
2017-05-25T08:45:53.821Z,71.07
2017-05-25T08:47:07.612Z,71.16
2017-05-25T08:48:23.261Z,71.07
2017-05-25T08:49:37.756Z,71.07
2017-05-25T08:50:53.172Z,71.11
2017-05-25T08:52:08.586Z,71.01
2017-05-25T08:53:24.048Z,70.62
2017-05-25T08:54:39.762Z,70.43
2017-05-25T08:55:53.918Z,70.62
2017-05-25T08:57:09.378Z,70.34
2017-05-25T08:58:24.797Z,70.72
2017-05-25T08:59:40.448Z,70.05
2017-05-25T09:00:55.840Z,70.43
2017-05-25T09:02:11.315Z,70.34
2017-05-25T09:03:26.803Z,70.34
2017-05-25T09:04:42.462Z,70.34
2017-05-25T09:05:55.154Z,69.86
2017-05-25T09:07:10.611Z,70.34
2017-05-25T09:08:26.269Z,69.95
2017-05-25T09:09:41.876Z,69.89
2017-05-25T09:10:56.404Z,69.42
2017-05-25T09:12:11.854Z,68.74
2017-05-25T09:13:27.420Z,68.36
2017-05-25T09:14:43.196Z,68.27
2017-05-25T09:15:58.682Z,67.98
2017-05-25T09:17:13.800Z,67.25
2017-05-25T09:18:27.923Z,67.05
2017-05-25T09:19:42.213Z,66.86
2017-05-25T09:20:57.962Z,66.48
2017-05-25T09:22:13.394Z,66.19
2017-05-25T09:23:28.993Z,66.09
2017-05-25T09:24:44.976Z,66.67
2017-05-25T09:26:00.395Z,66.58
2017-05-25T09:27:14.520Z,67.05
2017-05-25T09:28:28.710Z,66.96
2017-05-25T09:29:44.499Z,67.15
2017-05-25T09:30:59.971Z,66.96
2017-05-25T09:32:15.688Z,67.05
2017-05-25T09:33:31.166Z,66.86
2017-05-25T09:34:46.855Z,67.05
2017-05-25T09:36:02.398Z,67.25
2017-05-25T09:37:17.822Z,67.44
2017-05-25T09:38:33.307Z,67.72
2017-05-25T09:39:49.038Z,67.91
2017-05-25T09:41:04.500Z,67.72
2017-05-25T09:42:18.720Z,67.72
2017-05-25T09:43:34.172Z,68.11
2017-05-25T09:44:49.947Z,68.4
2017-05-25T09:46:05.635Z,68.11
2017-05-25T09:47:21.068Z,68.11
2017-05-25T09:48:36.515Z,68.36
2017-05-25T09:49:52.287Z,68.07
2017-05-25T09:51:07.803Z,68.17
2017-05-25T09:52:23.225Z,68.21
2017-05-25T09:53:38.697Z,68.68
2017-05-25T09:54:54.438Z,68.3
2017-05-25T09:56:09.893Z,67.34
2017-05-25T09:57:21.335Z,67.54
2017-05-25T09:58:36.739Z,66.77
2017-05-25T09:59:52.226Z,66.48
2017-05-25T10:01:07.873Z,66.67
2017-05-25T10:02:23.294Z,66.09
2017-05-25T10:03:38.718Z,65.81
2017-05-25T10:04:51.594Z,65.81
2017-05-25T10:06:07.240Z,66
2017-05-25T10:07:22.930Z,66.58
2017-05-25T10:08:38.345Z,66.48
2017-05-25T10:09:53.771Z,66.48
2017-05-25T10:11:09.351Z,66.93
2017-05-25T10:12:24.448Z,66.58
2017-05-25T10:13:39.946Z,66.48
2017-05-25T10:14:55.423Z,66.48
2017-05-25T10:16:11.086Z,66.09
2017-05-25T10:17:25.290Z,66.19
2017-05-25T10:18:39.316Z,66.19
2017-05-25T10:19:54.413Z,65.42
2017-05-25T10:21:10.076Z,65.14
2017-05-25T10:22:25.499Z,65.23
2017-05-25T10:23:40.607Z,65.33
2017-05-25T10:24:56.120Z,66
2017-05-25T10:26:11.486Z,66
2017-05-25T10:27:26.604Z,66.09
2017-05-25T10:28:40.595Z,66.09
2017-05-25T10:29:56.016Z,66.09
2017-05-25T10:31:11.705Z,66
2017-05-25T10:32:27.469Z,66.09
2017-05-25T10:33:42.939Z,66.13
2017-05-25T10:34:58.444Z,66.03
2017-05-25T10:36:14.152Z,66.13
2017-05-25T10:37:29.762Z,65.26
2017-05-25T10:38:45.278Z,65.26
2017-05-25T10:40:00.804Z,65.36
2017-05-25T10:41:16.540Z,65.08
2017-05-25T10:42:32.060Z,64.79
2017-05-25T10:43:47.477Z,64.79
2017-05-25T10:45:03.139Z,65.08
2017-05-25T10:46:15.809Z,65.36
2017-05-25T10:47:29.929Z,65.08
2017-05-25T10:48:45.663Z,65.17
2017-05-25T10:50:01.123Z,65.55
2017-05-25T10:51:16.882Z,65.46
2017-05-25T10:52:32.354Z,65.65
2017-05-25T10:53:47.818Z,65.65
2017-05-25T10:55:03.290Z,65.65
2017-05-25T10:56:18.569Z,65.65
2017-05-25T10:57:32.711Z,65.65
2017-05-25T10:58:48.212Z,65.84
2017-05-25T11:00:03.701Z,65.55
2017-05-25T11:01:19.676Z,66.03
2017-05-25T11:02:35.117Z,65.42
2017-05-25T11:03:48.016Z,66.03
2017-05-25T11:05:03.897Z,65.52
2017-05-25T11:06:19.336Z,65.94
2017-05-25T11:07:34.666Z,66.09
2017-05-25T11:08:50.129Z,65.55
2017-05-25T11:10:05.557Z,65.08
2017-05-25T11:11:21.045Z,64.25
2017-05-25T11:12:37.048Z,64.25
2017-05-25T11:13:52.487Z,64.05
2017-05-25T11:15:07.969Z,63.29
2017-05-25T11:16:22.009Z,63.48
2017-05-25T11:17:35.109Z,63.32
2017-05-25T11:18:48.030Z,62.26
2017-05-25T11:20:03.424Z,62.45
2017-05-25T11:21:18.552Z,61.33
2017-05-25T11:22:32.873Z,59.51
2017-05-25T11:23:48.344Z,58.29
2017-05-25T11:25:03.810Z,57.36
2017-05-25T11:26:18.038Z,58.92
2017-05-25T11:27:33.964Z,56.91
2017-05-25T11:28:48.182Z,56.33
2017-05-25T11:30:03.944Z,55.56
2017-05-25T11:31:19.376Z,54.79
2017-05-25T11:32:35.116Z,52.54
2017-05-25T11:33:50.581Z,51.38
2017-05-25T11:35:06.324Z,52.63
2017-05-25T11:36:20.428Z,52.54
2017-05-25T11:37:36.183Z,51.09
2017-05-25T11:38:51.649Z,51.7
2017-05-25T11:40:04.535Z,51.5
2017-05-25T11:41:19.924Z,51.21
2017-05-25T11:42:35.666Z,51.29
2017-05-25T11:43:51.105Z,52.44
2017-05-25T11:45:05.297Z,52.83
2017-05-25T11:46:19.291Z,52.63
2017-05-25T11:47:34.753Z,51.57
2017-05-25T11:48:50.482Z,52.32
2017-05-25T11:50:04.601Z,52.32
2017-05-25T11:51:19.991Z,51.93
2017-05-25T11:52:34.111Z,51.55
2017-05-25T11:53:49.774Z,51.19
2017-05-25T11:55:05.280Z,50.23
2017-05-25T11:56:20.771Z,51.02
2017-05-25T11:57:36.179Z,51.02
2017-05-25T11:58:51.872Z,51.24
2017-05-25T12:00:07.341Z,51.62
2017-05-25T12:01:22.756Z,50.57
2017-05-25T12:02:36.806Z,51.21
2017-05-25T12:03:53.100Z,50.15
2017-05-25T12:05:08.823Z,49.79
2017-05-25T12:06:24.292Z,49.79
2017-05-25T12:07:39.808Z,49.22
2017-05-25T12:08:55.343Z,49.22
2017-05-25T12:10:10.759Z,49.05
2017-05-25T12:11:26.370Z,47.99
2017-05-25T12:12:40.495Z,47.22
2017-05-25T12:13:54.934Z,47.03
2017-05-25T12:15:10.434Z,47.8
2017-05-25T12:16:25.917Z,47.89
2017-05-25T12:17:41.419Z,48.64
2017-05-25T12:18:57.170Z,49.22
2017-05-25T12:20:12.556Z,49.02
2017-05-25T12:21:28.070Z,49.22
2017-05-25T12:22:43.533Z,47.77
2017-05-25T12:23:57.820Z,47.1
2017-05-25T12:25:11.812Z,47.67
2017-05-25T12:26:27.250Z,47.87
2017-05-25T12:27:41.345Z,47
2017-05-25T12:28:57.045Z,47.19
2017-05-25T12:30:12.709Z,47.77
2017-05-25T12:31:28.387Z,47.77
2017-05-25T12:32:43.526Z,47.8
2017-05-25T12:33:59.161Z,46.93
2017-05-25T12:35:14.670Z,47.31
2017-05-25T12:36:30.213Z,47.51
2017-05-25T12:37:45.732Z,47.22
2017-05-25T12:39:01.451Z,47.22
2017-05-25T12:40:16.952Z,47.03
2017-05-25T12:41:32.406Z,47.8
2017-05-25T12:42:46.571Z,47.03
2017-05-25T12:44:02.277Z,46.35
2017-05-25T12:45:17.709Z,46.15
2017-05-25T12:46:33.157Z,46.25
2017-05-25T12:47:48.605Z,46.15
2017-05-25T12:49:04.194Z,46.35
2017-05-25T12:50:17.012Z,46.28
2017-05-25T12:51:31.173Z,46.45
2017-05-25T12:52:46.622Z,46.08
2017-05-25T12:54:02.404Z,45.97
2017-05-25T12:55:17.900Z,45.97
2017-05-25T12:56:33.395Z,46.15
2017-05-25T12:57:48.846Z,46.45
2017-05-25T12:59:02.896Z,47.22
2017-05-25T13:00:18.333Z,47.58
2017-05-25T13:01:32.499Z,47.19
2017-05-25T13:02:47.978Z,47.39
2017-05-25T13:04:03.692Z,47.1
2017-05-25T13:05:19.207Z,47.29
2017-05-25T13:06:34.636Z,47.51
2017-05-25T13:07:48.921Z,47.51
2017-05-25T13:09:03.098Z,46.55
2017-05-25T13:10:18.719Z,47
2017-05-25T13:11:34.167Z,46.91
2017-05-25T13:13:20.544Z,47.1
2017-05-25T13:14:35.884Z,47.99
2017-05-25T13:15:51.402Z,47.8
2017-05-25T13:17:06.877Z,47.31
2017-05-25T13:18:22.981Z,48.08
2017-05-25T13:19:37.416Z,47.7
2017-05-25T13:20:51.624Z,47.99
2017-05-25T13:22:07.066Z,47.87
2017-05-25T13:23:21.237Z,47.49
2017-05-25T13:24:35.510Z,47.77
2017-05-25T13:25:50.986Z,47.87
2017-05-25T13:27:06.489Z,47.97
2017-05-25T13:28:20.920Z,48.16
2017-05-25T13:29:36.577Z,48.47
2017-05-25T13:30:52.117Z,48.28
2017-05-25T13:32:06.154Z,47.22
2017-05-25T13:33:21.526Z,47.03
2017-05-25T13:34:35.778Z,47.41
2017-05-25T13:35:51.452Z,47.31
2017-05-25T13:37:06.888Z,47.51
2017-05-25T13:38:22.384Z,47.31
2017-05-25T13:39:36.677Z,47.6
2017-05-25T13:40:52.447Z,47.22
2017-05-25T13:42:07.976Z,46.83
2017-05-25T13:43:23.358Z,47.22
2017-05-25T13:44:37.383Z,47.22
2017-05-25T13:45:53.031Z,47.31
2017-05-25T13:47:08.790Z,47.03
2017-05-25T13:48:24.258Z,47.12
2017-05-25T13:49:39.767Z,47.31
2017-05-25T13:50:55.396Z,46.64
2017-05-25T13:52:09.419Z,46.73
2017-05-25T13:53:24.859Z,46.73
2017-05-25T13:54:39.042Z,47.03
2017-05-25T13:55:54.764Z,47.31
2017-05-25T13:57:10.310Z,47.03
2017-05-25T13:58:24.564Z,47.51
2017-05-25T13:59:40.064Z,46.93
2017-05-25T14:00:55.789Z,47.31
2017-05-25T14:02:11.262Z,46.93
2017-05-25T14:03:26.781Z,47.89
2017-05-25T14:04:40.808Z,47.12
2017-05-25T14:05:55.189Z,47.89
2017-05-25T14:07:10.624Z,47.7
2017-05-25T14:08:26.107Z,47.7
2017-05-25T14:09:41.593Z,47.31
2017-05-25T14:10:56.962Z,47.89
2017-05-25T14:12:12.805Z,47.8
2017-05-25T14:13:28.680Z,47.99
2017-05-25T14:14:43.800Z,47.99
2017-05-25T14:15:59.537Z,47.8
2017-05-25T14:17:15.002Z,47.82
2017-05-25T14:18:30.182Z,47.53
2017-05-25T14:19:45.717Z,47.34
2017-05-25T14:21:01.459Z,47.72
2017-05-25T14:22:16.983Z,46.88
2017-05-25T14:23:31.155Z,46.3
2017-05-25T14:24:46.665Z,45.92
2017-05-25T14:26:01.122Z,45.82
2017-05-25T14:27:16.640Z,46.2
2017-05-25T14:28:32.133Z,46.76
2017-05-25T14:29:47.625Z,46.95
2017-05-25T14:31:02.044Z,47.05
2017-05-25T14:32:17.524Z,47.53
2017-05-25T14:33:32.999Z,47.14
2017-05-25T14:34:48.560Z,47.44
2017-05-25T14:36:04.355Z,48.11
2017-05-25T14:37:19.820Z,47.53
2017-05-25T14:38:35.366Z,47.44
2017-05-25T14:39:50.851Z,47.14
2017-05-25T14:41:06.179Z,46.95
2017-05-25T14:42:21.626Z,47.44
2017-05-25T14:43:35.826Z,47.14
2017-05-25T14:44:51.336Z,47.34
2017-05-25T14:46:07.056Z,47.34
2017-05-25T14:47:22.523Z,47.24
2017-05-25T14:48:37.987Z,47.27
2017-05-25T14:49:53.058Z,47.17
2017-05-25T14:51:08.810Z,47.85
2017-05-25T14:52:24.430Z,47.45
2017-05-25T14:53:39.944Z,47.36
2017-05-25T14:54:55.607Z,47.45
2017-05-25T14:56:11.368Z,47.07
2017-05-25T14:57:25.401Z,47.27
2017-05-25T14:58:40.831Z,47.45
2017-05-25T14:59:53.642Z,47.36
2017-05-25T15:01:08.058Z,46.97
2017-05-25T15:02:22.149Z,46.78
2017-05-25T15:03:37.584Z,46.69
2017-05-25T15:04:53.048Z,47.07
2017-05-25T15:06:05.906Z,47.36
2017-05-25T15:07:21.673Z,47.17
2017-05-25T15:08:37.370Z,47.55
2017-05-25T15:09:52.853Z,47.65
2017-05-25T15:11:07.006Z,48.13
2017-05-25T15:12:22.730Z,47.94
2017-05-25T15:13:36.852Z,48.13
2017-05-25T15:14:52.618Z,47.94
2017-05-25T15:16:08.162Z,47.75
2017-05-25T15:17:22.599Z,47.85
2017-05-25T15:18:37.981Z,47.85
2017-05-25T15:19:52.179Z,47.85
2017-05-25T15:21:04.932Z,47.07
2017-05-25T15:22:19.246Z,47.17
2017-05-25T15:23:34.679Z,46.97
2017-05-25T15:24:49.826Z,46.78
2017-05-25T15:26:04.938Z,46.97
2017-05-25T15:27:19.137Z,47.45
2017-05-25T15:28:34.599Z,47.36
2017-05-25T15:29:48.941Z,47.27
2017-05-25T15:31:03.037Z,47.27
2017-05-25T15:32:17.367Z,47.27
2017-05-25T15:33:32.840Z,47.85
2017-05-25T15:34:48.354Z,47.85
2017-05-25T15:36:03.800Z,47.07
2017-05-25T15:37:19.456Z,47.27
2017-05-25T15:38:34.920Z,47.36
2017-05-25T15:39:49.060Z,47.17
2017-05-25T15:41:04.558Z,47.27
2017-05-25T15:42:20.232Z,47.65
2017-05-25T15:43:35.648Z,47.85
2017-05-25T15:44:51.133Z,48.52
2017-05-25T15:46:06.601Z,48.9
2017-05-25T15:47:22.343Z,48.61
2017-05-25T15:48:37.902Z,48.81
2017-05-25T15:49:53.431Z,48.71
2017-05-25T15:51:08.914Z,48.81
2017-05-25T15:52:24.542Z,48.52
2017-05-25T15:53:39.925Z,48.69
2017-05-25T15:54:55.333Z,48.88
2017-05-25T15:56:10.925Z,48.97
2017-05-25T15:57:25.258Z,48.88
2017-05-25T15:58:40.776Z,49.27
2017-05-25T15:59:56.254Z,49.55
2017-05-25T16:01:11.790Z,49.19
2017-05-25T16:02:27.555Z,48.9
2017-05-25T16:03:43.009Z,49.17
2017-05-25T16:04:58.507Z,49.39
2017-05-25T16:06:14.444Z,48.81
2017-05-25T16:07:30.173Z,49.39
2017-05-25T16:08:45.632Z,49.19
2017-05-25T16:10:01.091Z,49.19
2017-05-25T16:11:16.595Z,49.19
2017-05-25T16:12:32.365Z,49.1
2017-05-25T16:13:47.811Z,49